Terminal Aerodrome Forecast
Issued by NWS Missoula, MT

Home | Current Version | Previous Version | Text Only | Print | Product List | Glossary On
Versions: 1 2 3 4 5 6 7 8 9 10 11 12 13 14 15 16 17 18 19 20 21
306
FTUS45 KMSO 132320
TAFGPI
TAF
KGPI 132320Z 1400/1424 13008KT P6SM -SHRA SCT030 OVC050
     FM140100 16008KT P6SM VCSH BKN060
     FM140400 18007KT 4SM -SHRASN BKN025 OVC050
     FM141300 19006KT P6SM VCSH OVC050=

USA.gov is the U.S. government's official web portal to all federal, state and local government web resources and services.